createdAt,value
2018-01-25T00:00:43.184Z,0.00
2018-01-25T00:01:43.210Z,0.00
2018-01-25T00:02:43.224Z,0.00
2018-01-25T00:03:43.148Z,0.00
2018-01-25T00:04:43.121Z,0.00
2018-01-25T00:05:43.108Z,0.00
2018-01-25T00:06:43.166Z,0.00
2018-01-25T00:07:43.110Z,0.00
2018-01-25T00:08:43.061Z,0.00
2018-01-25T00:09:43.046Z,0.00
2018-01-25T00:10:43.045Z,0.00
2018-01-25T00:11:43.014Z,0.00
2018-01-25T00:12:43.026Z,0.00
2018-01-25T00:13:42.981Z,0.00
2018-01-25T00:14:43.006Z,0.00
2018-01-25T00:15:42.954Z,0.00
2018-01-25T00:16:42.934Z,0.00
2018-01-25T00:17:42.945Z,0.00
2018-01-25T00:18:42.918Z,0.00
2018-01-25T00:19:42.892Z,0.00
2018-01-25T00:20:42.876Z,0.00
2018-01-25T00:21:42.862Z,0.00
2018-01-25T00:22:42.881Z,0.00
2018-01-25T00:23:42.874Z,0.00
2018-01-25T00:24:42.816Z,0.00
2018-01-25T00:25:42.794Z,0.00
2018-01-25T00:26:42.857Z,0.00
2018-01-25T00:27:42.818Z,0.00
2018-01-25T00:28:42.761Z,0.00
2018-01-25T00:29:42.745Z,0.00
2018-01-25T00:30:42.951Z,0.00
2018-01-25T00:31:42.705Z,0.00
2018-01-25T00:32:42.712Z,0.00
2018-01-25T00:33:42.698Z,0.00
2018-01-25T00:34:42.659Z,0.00
2018-01-25T00:35:42.644Z,0.00
2018-01-25T00:36:42.632Z,0.00
2018-01-25T00:37:42.624Z,0.00
2018-01-25T00:38:42.652Z,0.00
2018-01-25T00:39:42.624Z,0.00
2018-01-25T00:40:42.569Z,0.00
2018-01-25T00:41:42.627Z,0.00
2018-01-25T00:42:42.555Z,0.00
2018-01-25T00:43:42.559Z,0.00
2018-01-25T00:44:42.536Z,0.00
2018-01-25T00:45:42.495Z,0.00
2018-01-25T00:46:42.498Z,0.00
2018-01-25T00:47:42.559Z,0.00
2018-01-25T00:48:42.490Z,0.00
2018-01-25T00:49:42.451Z,0.00
2018-01-25T00:50:42.419Z,0.00
2018-01-25T00:51:42.436Z,0.00
2018-01-25T00:52:43.037Z,0.00
2018-01-25T00:53:42.402Z,0.00
2018-01-25T00:54:42.419Z,0.00
2018-01-25T00:55:42.379Z,0.00
2018-01-25T00:56:42.361Z,0.00
2018-01-25T00:57:42.303Z,0.00
2018-01-25T00:58:42.296Z,0.00
2018-01-25T00:59:42.296Z,0.00
2018-01-25T01:00:42.378Z,0.00
2018-01-25T01:01:42.240Z,0.00
2018-01-25T01:02:42.226Z,0.00
2018-01-25T01:03:42.208Z,0.00
2018-01-25T01:04:42.217Z,0.00
2018-01-25T01:05:42.209Z,0.00
2018-01-25T01:06:42.170Z,0.00
2018-01-25T01:07:42.157Z,0.00
2018-01-25T01:08:42.133Z,0.00
2018-01-25T01:09:42.143Z,0.00
2018-01-25T01:10:42.169Z,0.00
2018-01-25T01:11:42.091Z,0.00
2018-01-25T01:12:42.077Z,0.00
2018-01-25T01:13:42.066Z,0.00
2018-01-25T01:14:42.054Z,0.00
2018-01-25T01:15:42.036Z,0.00
2018-01-25T01:16:42.036Z,0.00
2018-01-25T01:17:42.000Z,0.00
2018-01-25T01:18:41.985Z,0.00
2018-01-25T01:19:41.971Z,0.00
2018-01-25T01:20:41.953Z,0.00
2018-01-25T01:21:41.953Z,0.00
2018-01-25T01:22:41.926Z,0.00
2018-01-25T01:23:41.976Z,0.00
2018-01-25T01:24:41.888Z,0.00
2018-01-25T01:25:41.877Z,0.00
2018-01-25T01:26:42.018Z,0.00
2018-01-25T01:27:41.849Z,0.00
2018-01-25T01:28:41.933Z,0.00
2018-01-25T01:29:41.812Z,0.00
2018-01-25T01:30:41.800Z,0.00
2018-01-25T01:31:41.818Z,0.00
2018-01-25T01:32:41.779Z,0.00
2018-01-25T01:33:41.939Z,0.00
2018-01-25T01:34:41.731Z,0.00
2018-01-25T01:35:41.738Z,0.00
2018-01-25T01:36:41.831Z,0.00
2018-01-25T01:37:41.691Z,0.00
2018-01-25T01:38:41.772Z,0.00
2018-01-25T01:39:41.664Z,0.00
2018-01-25T01:40:41.779Z,0.00
2018-01-25T01:41:41.697Z,0.00
2018-01-25T01:42:41.617Z,0.00
2018-01-25T01:43:41.604Z,0.00
2018-01-25T01:44:41.592Z,0.00
2018-01-25T01:45:41.636Z,0.00
2018-01-25T01:46:41.602Z,0.00
2018-01-25T01:47:41.560Z,0.00
2018-01-25T01:48:41.634Z,0.00
2018-01-25T01:49:41.504Z,0.00
2018-01-25T01:50:41.494Z,0.00
2018-01-25T01:51:41.553Z,0.00
2018-01-25T01:52:41.480Z,0.00
2018-01-25T01:53:41.452Z,0.00
2018-01-25T01:54:41.443Z,0.00
2018-01-25T01:55:41.450Z,0.00
2018-01-25T01:56:41.521Z,0.00
2018-01-25T01:57:41.415Z,0.00
2018-01-25T01:58:41.518Z,0.00
2018-01-25T01:59:41.353Z,0.00
2018-01-25T02:00:41.429Z,0.00
2018-01-25T02:01:41.319Z,0.00
2018-01-25T02:02:41.341Z,0.00
2018-01-25T02:03:41.294Z,0.00
2018-01-25T02:04:41.368Z,0.00
2018-01-25T02:05:41.322Z,0.00
2018-01-25T02:06:41.249Z,0.00
2018-01-25T02:07:41.365Z,0.00
2018-01-25T02:08:41.308Z,0.00
2018-01-25T02:09:41.321Z,0.00
2018-01-25T02:10:41.179Z,0.00
2018-01-25T02:11:41.185Z,0.00
2018-01-25T02:12:41.165Z,0.00
2018-01-25T02:13:41.130Z,0.00
2018-01-25T02:14:41.120Z,0.00
2018-01-25T02:15:41.202Z,0.00
2018-01-25T02:16:41.075Z,0.00
2018-01-25T02:17:41.090Z,0.00
2018-01-25T02:18:41.059Z,0.00
2018-01-25T02:19:41.124Z,0.00
2018-01-25T02:20:41.025Z,0.00
2018-01-25T02:21:41.013Z,0.00
2018-01-25T02:22:40.991Z,0.00
2018-01-25T02:23:40.994Z,0.00
2018-01-25T02:24:40.958Z,0.00
2018-01-25T02:25:40.944Z,0.00
2018-01-25T02:26:40.965Z,0.00
2018-01-25T02:27:41.071Z,0.00
2018-01-25T02:28:40.931Z,0.00
2018-01-25T02:29:40.894Z,0.00
2018-01-25T02:30:40.908Z,0.00
2018-01-25T02:31:40.846Z,0.00
2018-01-25T02:32:40.837Z,0.00
2018-01-25T02:33:40.854Z,0.00
2018-01-25T02:34:40.812Z,0.00
2018-01-25T02:35:40.792Z,0.00
2018-01-25T02:36:40.778Z,0.00
2018-01-25T02:37:40.790Z,0.00
2018-01-25T02:38:40.763Z,0.00
2018-01-25T02:39:40.745Z,0.00
2018-01-25T02:40:40.710Z,0.00
2018-01-25T02:41:40.703Z,0.00
2018-01-25T02:42:40.708Z,0.00
2018-01-25T02:43:40.665Z,0.00
2018-01-25T02:44:40.696Z,0.00
2018-01-25T02:45:40.638Z,0.00
2018-01-25T02:46:40.629Z,0.00
2018-01-25T02:47:40.605Z,0.00
2018-01-25T02:48:40.591Z,0.00
2018-01-25T02:49:40.592Z,0.00
2018-01-25T02:50:40.559Z,0.00
2018-01-25T02:51:40.544Z,0.00
2018-01-25T02:52:40.525Z,0.00
2018-01-25T02:53:40.511Z,0.00
2018-01-25T02:54:40.521Z,0.00
2018-01-25T02:55:40.477Z,0.00
2018-01-25T02:56:40.471Z,0.00
2018-01-25T02:57:40.481Z,0.00
2018-01-25T02:58:40.433Z,0.00
2018-01-25T02:59:40.443Z,0.00
2018-01-25T03:00:40.402Z,0.00
2018-01-25T03:01:40.494Z,0.00
2018-01-25T03:02:40.370Z,0.00
2018-01-25T03:03:40.452Z,0.00
2018-01-25T03:04:40.376Z,0.00
2018-01-25T03:05:40.341Z,0.00
2018-01-25T03:06:40.302Z,0.00
2018-01-25T03:07:40.292Z,0.00
2018-01-25T03:08:41.056Z,0.00
2018-01-25T03:09:40.285Z,0.00
2018-01-25T03:10:40.269Z,0.00
2018-01-25T03:11:40.225Z,0.00
2018-01-25T03:12:40.256Z,0.00
2018-01-25T03:13:40.210Z,0.00
2018-01-25T03:14:40.198Z,0.00
2018-01-25T03:15:40.196Z,0.00
2018-01-25T03:16:40.171Z,0.00
2018-01-25T03:17:40.146Z,0.00
2018-01-25T03:18:40.153Z,0.00
2018-01-25T03:19:40.144Z,0.00
2018-01-25T03:20:40.142Z,0.00
2018-01-25T03:21:40.091Z,0.00
2018-01-25T03:22:40.059Z,0.00
2018-01-25T03:23:40.063Z,0.00
2018-01-25T03:24:40.057Z,0.00
2018-01-25T03:25:40.057Z,0.00
2018-01-25T03:26:40.009Z,0.00
2018-01-25T03:27:40.004Z,0.00
2018-01-25T03:28:40.024Z,0.00
2018-01-25T03:29:39.971Z,0.00
2018-01-25T03:30:39.982Z,0.00
2018-01-25T03:31:39.958Z,0.00
2018-01-25T03:32:39.937Z,0.00
2018-01-25T03:33:39.909Z,0.00
2018-01-25T03:34:39.894Z,0.00
2018-01-25T03:35:39.995Z,0.00
2018-01-25T03:36:39.857Z,0.00
2018-01-25T03:37:39.852Z,0.00
2018-01-25T03:38:39.835Z,0.00
2018-01-25T03:39:39.821Z,0.00
2018-01-25T03:40:39.822Z,0.00
2018-01-25T03:41:39.783Z,0.00
2018-01-25T03:42:39.776Z,0.00
2018-01-25T03:43:39.775Z,0.00
2018-01-25T03:44:39.741Z,0.00
2018-01-25T03:45:44.722Z,0.00
2018-01-25T03:46:39.747Z,0.00
2018-01-25T03:47:39.702Z,0.00
2018-01-25T03:48:39.757Z,0.00
2018-01-25T03:49:39.657Z,0.00
2018-01-25T03:50:39.746Z,0.00
2018-01-25T03:51:39.635Z,0.00
2018-01-25T03:52:39.629Z,0.00
2018-01-25T03:53:39.658Z,0.00
2018-01-25T03:54:39.626Z,0.00
2018-01-25T03:55:39.557Z,0.00
2018-01-25T03:56:39.551Z,0.00
2018-01-25T03:57:39.556Z,0.00
2018-01-25T03:58:39.637Z,0.00
2018-01-25T03:59:39.510Z,0.00
2018-01-25T04:00:39.494Z,0.00
2018-01-25T04:01:40.208Z,0.00
2018-01-25T04:02:39.484Z,0.00
2018-01-25T04:03:39.439Z,0.00
2018-01-25T04:04:39.427Z,0.00
2018-01-25T04:05:39.411Z,0.00
2018-01-25T04:06:39.389Z,0.00
2018-01-25T04:07:39.498Z,0.00
2018-01-25T04:08:39.363Z,0.00
2018-01-25T04:09:39.342Z,0.00
2018-01-25T04:10:39.311Z,0.00
2018-01-25T04:11:39.311Z,0.00
2018-01-25T04:12:39.325Z,0.00
2018-01-25T04:13:39.313Z,0.00
2018-01-25T04:14:39.256Z,0.00
2018-01-25T04:15:39.253Z,0.00
2018-01-25T04:16:39.345Z,0.00
2018-01-25T04:17:39.243Z,0.00
2018-01-25T04:18:39.305Z,0.00
2018-01-25T04:19:39.194Z,0.00
2018-01-25T04:20:39.172Z,0.00
2018-01-25T04:21:39.161Z,0.00
2018-01-25T04:22:39.180Z,0.00
2018-01-25T04:23:39.130Z,0.00
2018-01-25T04:24:40.207Z,0.00
2018-01-25T04:25:39.171Z,0.00
2018-01-25T04:26:39.083Z,0.00
2018-01-25T04:27:39.083Z,0.00
2018-01-25T04:28:41.664Z,0.00
2018-01-25T04:29:39.041Z,0.00
2018-01-25T04:30:39.021Z,0.00
2018-01-25T04:31:39.080Z,0.00
2018-01-25T04:32:39.088Z,0.00
2018-01-25T04:33:38.988Z,0.00
2018-01-25T04:34:38.965Z,0.00
2018-01-25T04:35:38.949Z,0.00
2018-01-25T04:36:39.031Z,0.00
2018-01-25T04:37:38.915Z,0.00
2018-01-25T04:38:38.990Z,0.00
2018-01-25T04:39:38.863Z,0.00
2018-01-25T04:40:38.866Z,0.00
2018-01-25T04:41:38.841Z,0.00
2018-01-25T04:42:38.847Z,0.00
2018-01-25T04:43:38.852Z,0.00
2018-01-25T04:44:38.863Z,0.00
2018-01-25T04:45:38.789Z,0.00
2018-01-25T04:46:38.756Z,0.00
2018-01-25T04:47:38.853Z,0.00
2018-01-25T04:48:38.762Z,0.00
2018-01-25T04:49:38.847Z,0.00
2018-01-25T04:50:38.696Z,0.00
2018-01-25T04:51:38.781Z,0.00
2018-01-25T04:52:38.670Z,0.00
2018-01-25T04:53:38.756Z,0.00
2018-01-25T04:54:38.665Z,0.00
2018-01-25T04:55:38.635Z,0.00
2018-01-25T04:56:38.600Z,0.00
2018-01-25T04:57:38.767Z,0.00
2018-01-25T04:58:38.578Z,0.00
2018-01-25T04:59:38.612Z,0.00
2018-01-25T05:00:38.658Z,0.00
2018-01-25T05:01:38.531Z,0.00
2018-01-25T05:02:38.526Z,0.00
2018-01-25T05:03:38.500Z,0.00
2018-01-25T05:04:38.518Z,0.00
2018-01-25T05:05:38.481Z,0.00
2018-01-25T05:06:38.466Z,0.00
2018-01-25T05:07:38.435Z,0.00
2018-01-25T05:08:38.423Z,0.00
2018-01-25T05:09:38.443Z,0.00
2018-01-25T05:10:38.375Z,0.00
2018-01-25T05:11:38.473Z,0.00
2018-01-25T05:12:38.362Z,0.00
2018-01-25T05:13:38.350Z,0.00
2018-01-25T05:14:38.372Z,0.00
2018-01-25T05:15:38.399Z,0.00
2018-01-25T05:16:38.307Z,0.00
2018-01-25T05:17:38.296Z,0.00
2018-01-25T05:18:38.403Z,0.00
2018-01-25T05:19:38.367Z,0.00
2018-01-25T05:20:38.254Z,0.00
2018-01-25T05:21:38.219Z,0.00
2018-01-25T05:22:38.285Z,0.00
2018-01-25T05:23:38.190Z,0.00
2018-01-25T05:24:38.173Z,0.00
2018-01-25T05:25:38.265Z,0.00
2018-01-25T05:26:38.124Z,0.00
2018-01-25T05:27:38.126Z,0.00
2018-01-25T05:28:38.119Z,0.00
2018-01-25T05:29:38.095Z,0.00
2018-01-25T05:30:38.123Z,0.00
2018-01-25T05:31:38.073Z,0.00
2018-01-25T05:32:38.048Z,0.00
2018-01-25T05:33:38.033Z,0.00
2018-01-25T05:34:38.026Z,0.00
2018-01-25T05:35:38.008Z,0.00
2018-01-25T05:36:38.012Z,0.00
2018-01-25T05:37:38.081Z,0.00
2018-01-25T05:38:37.937Z,0.00
2018-01-25T05:39:37.946Z,0.00
2018-01-25T05:40:37.935Z,0.00
2018-01-25T05:41:37.931Z,0.00
2018-01-25T05:42:37.957Z,0.00
2018-01-25T05:43:37.929Z,0.00
2018-01-25T05:44:37.869Z,0.00
2018-01-25T05:45:37.847Z,0.00
2018-01-25T05:46:37.867Z,0.00
2018-01-25T05:47:37.837Z,0.00
2018-01-25T05:48:37.801Z,0.00
2018-01-25T05:49:37.791Z,0.00
2018-01-25T05:50:37.764Z,0.00
2018-01-25T05:51:37.823Z,0.00
2018-01-25T05:52:37.745Z,0.00
2018-01-25T05:53:37.768Z,0.00
2018-01-25T05:54:37.702Z,0.00
2018-01-25T05:55:37.690Z,0.00
2018-01-25T05:56:37.717Z,0.00
2018-01-25T05:57:37.684Z,0.00
2018-01-25T05:58:37.633Z,0.00
2018-01-25T05:59:37.604Z,0.00
2018-01-25T06:00:38.114Z,0.00
2018-01-25T06:01:37.594Z,0.00
2018-01-25T06:02:37.605Z,0.00
2018-01-25T06:03:37.567Z,0.00
2018-01-25T06:04:37.601Z,0.00
2018-01-25T06:05:37.542Z,0.00
2018-01-25T06:06:37.530Z,0.00
2018-01-25T06:07:37.521Z,0.00
2018-01-25T06:08:37.530Z,0.00
2018-01-25T06:09:37.473Z,0.00
2018-01-25T06:10:37.550Z,0.00
2018-01-25T06:11:37.484Z,0.00
2018-01-25T06:12:37.452Z,0.00
2018-01-25T06:13:37.429Z,0.00
2018-01-25T06:14:37.391Z,0.00
2018-01-25T06:15:37.389Z,0.00
2018-01-25T06:16:37.363Z,0.00
2018-01-25T06:17:37.357Z,0.00
2018-01-25T06:18:37.464Z,0.00
2018-01-25T06:19:37.348Z,0.00
2018-01-25T06:20:37.302Z,0.00
2018-01-25T06:21:37.308Z,0.00
2018-01-25T06:22:37.271Z,0.00
2018-01-25T06:23:37.311Z,0.00
2018-01-25T06:24:37.247Z,4.00
2018-01-25T06:25:37.217Z,4.00
2018-01-25T06:26:37.306Z,4.00
2018-01-25T06:27:37.166Z,4.00
2018-01-25T06:28:37.297Z,4.00
2018-01-25T06:29:38.121Z,4.00
2018-01-25T06:30:37.148Z,4.00
2018-01-25T06:31:37.138Z,4.00
2018-01-25T06:32:37.120Z,4.00
2018-01-25T06:33:37.176Z,4.00
2018-01-25T06:34:37.107Z,4.00
2018-01-25T06:35:37.151Z,4.00
2018-01-25T06:36:37.053Z,4.00
2018-01-25T06:37:37.031Z,4.00
2018-01-25T06:38:37.013Z,4.00
2018-01-25T06:39:37.072Z,4.00
2018-01-25T06:40:36.992Z,4.00
2018-01-25T06:41:36.973Z,4.00
2018-01-25T06:42:36.958Z,4.00
2018-01-25T06:43:36.955Z,4.00
2018-01-25T06:44:37.052Z,4.00
2018-01-25T06:45:36.912Z,4.00
2018-01-25T06:46:36.897Z,4.00
2018-01-25T06:47:36.872Z,4.00
2018-01-25T06:48:36.870Z,4.00
2018-01-25T06:49:36.875Z,0.00
2018-01-25T06:50:36.920Z,0.00
2018-01-25T06:51:36.820Z,0.00
2018-01-25T06:52:36.802Z,0.00
2018-01-25T06:53:36.865Z,0.00
2018-01-25T06:54:36.791Z,0.00
2018-01-25T06:55:36.894Z,0.00
2018-01-25T06:56:36.733Z,0.00
2018-01-25T06:57:36.809Z,0.00
2018-01-25T06:58:36.730Z,0.00
2018-01-25T06:59:36.692Z,0.00
2018-01-25T07:00:36.730Z,0.00
2018-01-25T07:01:36.713Z,0.00
2018-01-25T07:02:36.697Z,0.00
2018-01-25T07:03:36.635Z,0.00
2018-01-25T07:04:36.614Z,0.00
2018-01-25T07:05:36.616Z,4.00
2018-01-25T07:06:36.596Z,4.00
2018-01-25T07:07:36.560Z,4.00
2018-01-25T07:08:36.586Z,4.00
2018-01-25T07:09:36.572Z,4.00
2018-01-25T07:10:37.150Z,4.00
2018-01-25T07:11:36.746Z,4.00
2018-01-25T07:12:36.495Z,4.00
2018-01-25T07:13:36.468Z,4.00
2018-01-25T07:14:36.455Z,4.00
2018-01-25T07:15:36.448Z,8.00
2018-01-25T07:16:36.453Z,4.00
2018-01-25T07:17:37.137Z,8.00
2018-01-25T07:18:36.440Z,4.00
2018-01-25T07:19:36.381Z,8.00
2018-01-25T07:20:36.460Z,4.00
2018-01-25T07:21:36.485Z,8.00
2018-01-25T07:22:36.321Z,4.00
2018-01-25T07:23:36.313Z,4.00
2018-01-25T07:24:36.310Z,8.00
2018-01-25T07:25:36.305Z,8.00
2018-01-25T07:26:36.280Z,4.00
2018-01-25T07:27:36.277Z,4.00
2018-01-25T07:28:36.235Z,8.00
2018-01-25T07:29:37.141Z,8.00
2018-01-25T07:30:36.203Z,8.00
2018-01-25T07:31:36.183Z,8.00
2018-01-25T07:32:36.251Z,8.00
2018-01-25T07:33:36.165Z,12.00
2018-01-25T07:34:36.185Z,16.00
2018-01-25T07:35:36.101Z,20.00
2018-01-25T07:36:36.107Z,24.00
2018-01-25T07:37:36.112Z,28.00
2018-01-25T07:38:36.082Z,28.00
2018-01-25T07:39:36.135Z,32.00
2018-01-25T07:40:36.080Z,28.00
2018-01-25T07:41:36.084Z,32.00
2018-01-25T07:42:36.208Z,36.00
2018-01-25T07:43:36.000Z,40.00
2018-01-25T07:44:36.042Z,44.00
2018-01-25T07:45:36.672Z,44.00
2018-01-25T07:46:36.063Z,48.00
2018-01-25T07:47:36.036Z,48.00
2018-01-25T07:48:36.039Z,52.00
2018-01-25T07:49:35.905Z,52.00
2018-01-25T07:50:35.894Z,52.00
2018-01-25T07:51:35.887Z,52.00
2018-01-25T07:52:35.961Z,52.00
2018-01-25T07:53:35.856Z,52.00
2018-01-25T07:54:35.804Z,56.00
2018-01-25T07:55:35.814Z,48.00
2018-01-25T07:56:35.826Z,56.00
2018-01-25T07:57:35.808Z,52.00
2018-01-25T07:58:35.776Z,48.00
2018-01-25T07:59:35.744Z,52.00
2018-01-25T08:00:35.824Z,56.00
2018-01-25T08:01:35.697Z,52.00
2018-01-25T08:02:35.700Z,60.00
2018-01-25T08:03:35.680Z,64.00
2018-01-25T08:04:35.646Z,72.00
2018-01-25T08:05:35.632Z,76.00
2018-01-25T08:06:35.627Z,88.00
2018-01-25T08:07:35.595Z,96.00
2018-01-25T08:08:35.609Z,92.00
2018-01-25T08:09:35.632Z,104.00
2018-01-25T08:10:35.551Z,112.00
2018-01-25T08:11:35.555Z,116.00
2018-01-25T08:12:35.540Z,128.00
2018-01-25T08:13:35.501Z,136.00
2018-01-25T08:14:35.529Z,132.00
2018-01-25T08:15:35.476Z,132.00
2018-01-25T08:16:35.463Z,120.00
2018-01-25T08:17:35.445Z,132.00
2018-01-25T08:18:35.434Z,132.00
2018-01-25T08:19:35.441Z,132.00
2018-01-25T08:20:35.406Z,132.00
2018-01-25T08:21:36.187Z,136.00
2018-01-25T08:22:35.365Z,140.00
2018-01-25T08:23:35.357Z,144.00
2018-01-25T08:24:35.371Z,144.00
2018-01-25T08:25:35.314Z,136.00
2018-01-25T08:26:35.305Z,120.00
2018-01-25T08:27:35.323Z,112.00
2018-01-25T08:28:35.291Z,124.00
2018-01-25T08:29:35.285Z,140.00
2018-01-25T08:30:35.250Z,144.00
2018-01-25T08:31:35.235Z,140.00
2018-01-25T08:32:35.216Z,132.00
2018-01-25T08:33:35.226Z,136.00
2018-01-25T08:34:35.205Z,136.00
2018-01-25T08:35:35.168Z,144.00
2018-01-25T08:36:35.142Z,144.00
2018-01-25T08:37:35.132Z,152.00
2018-01-25T08:38:35.123Z,148.00
2018-01-25T08:39:35.137Z,152.00
2018-01-25T08:40:35.085Z,148.00
2018-01-25T08:41:35.076Z,148.00
2018-01-25T08:42:35.052Z,128.00
2018-01-25T08:43:35.036Z,104.00
2018-01-25T08:44:35.082Z,132.00
2018-01-25T08:45:35.020Z,116.00
2018-01-25T08:46:34.995Z,156.00
2018-01-25T08:47:34.978Z,172.00
2018-01-25T08:48:35.675Z,168.00
2018-01-25T08:49:34.943Z,164.00
2018-01-25T08:50:34.960Z,144.00
2018-01-25T08:51:34.911Z,120.00
2018-01-25T08:52:34.910Z,116.00
2018-01-25T08:53:34.894Z,144.00
2018-01-25T08:54:34.870Z,144.00
2018-01-25T08:55:34.880Z,144.00
2018-01-25T08:56:34.882Z,160.00
2018-01-25T08:57:34.848Z,148.00
2018-01-25T08:58:34.809Z,136.00
2018-01-25T08:59:34.796Z,148.00
2018-01-25T09:00:34.840Z,148.00
2018-01-25T09:01:34.785Z,152.00
2018-01-25T09:02:34.750Z,160.00
2018-01-25T09:03:34.740Z,160.00
2018-01-25T09:04:34.713Z,140.00
2018-01-25T09:05:34.700Z,152.00
2018-01-25T09:06:34.723Z,156.00
2018-01-25T09:07:34.664Z,164.00
2018-01-25T09:08:34.663Z,156.00
2018-01-25T09:09:34.647Z,152.00
2018-01-25T09:10:34.665Z,136.00
2018-01-25T09:11:35.186Z,140.00
2018-01-25T09:12:34.592Z,144.00
2018-01-25T09:13:34.584Z,152.00
2018-01-25T09:14:34.565Z,160.00
2018-01-25T09:15:34.588Z,152.00
2018-01-25T09:16:34.526Z,140.00
2018-01-25T09:17:35.205Z,112.00
2018-01-25T09:18:34.497Z,144.00
2018-01-25T09:19:34.475Z,148.00
2018-01-25T09:20:34.498Z,168.00
2018-01-25T09:21:34.517Z,168.00
2018-01-25T09:22:35.193Z,160.00
2018-01-25T09:23:34.504Z,168.00
2018-01-25T09:24:34.413Z,164.00
2018-01-25T09:25:34.417Z,160.00
2018-01-25T09:26:34.368Z,160.00
2018-01-25T09:27:34.406Z,160.00
2018-01-25T09:28:34.336Z,164.00
2018-01-25T09:29:34.343Z,160.00
2018-01-25T09:30:34.348Z,156.00
2018-01-25T09:31:34.292Z,168.00
2018-01-25T09:32:34.331Z,168.00
2018-01-25T09:33:34.255Z,156.00
2018-01-25T09:34:34.251Z,152.00
2018-01-25T09:35:34.240Z,164.00
2018-01-25T09:36:34.211Z,164.00
2018-01-25T09:37:34.236Z,164.00
2018-01-25T09:38:34.178Z,172.00
2018-01-25T09:39:34.194Z,172.00
2018-01-25T09:40:34.158Z,176.00
2018-01-25T09:41:34.142Z,168.00
2018-01-25T09:42:34.241Z,160.00
2018-01-25T09:43:34.248Z,148.00
2018-01-25T09:44:34.090Z,156.00
2018-01-25T09:45:34.111Z,152.00
2018-01-25T09:46:34.066Z,144.00
2018-01-25T09:47:34.185Z,136.00
2018-01-25T09:48:34.061Z,160.00
2018-01-25T09:49:34.017Z,180.00
2018-01-25T09:50:34.000Z,188.00
2018-01-25T09:51:33.972Z,204.00
2018-01-25T09:52:33.989Z,188.00
2018-01-25T09:53:34.696Z,152.00
2018-01-25T09:54:33.940Z,132.00
2018-01-25T09:55:33.921Z,132.00
2018-01-25T09:56:33.907Z,144.00
2018-01-25T09:57:33.880Z,148.00
2018-01-25T09:58:33.975Z,148.00
2018-01-25T09:59:33.869Z,184.00
2018-01-25T10:00:33.849Z,180.00
2018-01-25T10:01:33.877Z,152.00
2018-01-25T10:02:33.827Z,176.00
2018-01-25T10:03:33.882Z,148.00
2018-01-25T10:04:33.828Z,132.00
2018-01-25T10:05:33.842Z,140.00
2018-01-25T10:06:33.749Z,156.00
2018-01-25T10:07:33.839Z,204.00
2018-01-25T10:08:33.729Z,196.00
2018-01-25T10:09:33.726Z,192.00
2018-01-25T10:10:33.704Z,224.00
2018-01-25T10:11:33.741Z,216.00
2018-01-25T10:12:33.663Z,160.00
2018-01-25T10:13:33.646Z,144.00
2018-01-25T10:14:33.680Z,148.00
2018-01-25T10:15:33.655Z,212.00
2018-01-25T10:16:33.614Z,240.00
2018-01-25T10:17:33.608Z,172.00
2018-01-25T10:18:33.639Z,128.00
2018-01-25T10:19:33.648Z,108.00
2018-01-25T10:20:33.529Z,136.00
2018-01-25T10:21:33.712Z,232.00
2018-01-25T10:22:33.498Z,256.00
2018-01-25T10:23:33.557Z,268.00
2018-01-25T10:24:33.510Z,184.00
2018-01-25T10:25:33.487Z,152.00
2018-01-25T10:26:33.445Z,172.00
2018-01-25T10:27:33.424Z,160.00
2018-01-25T10:28:33.418Z,152.00
2018-01-25T10:29:33.416Z,164.00
2018-01-25T10:30:34.227Z,160.00
2018-01-25T10:31:33.354Z,156.00
2018-01-25T10:32:33.376Z,176.00
2018-01-25T10:33:33.400Z,184.00
2018-01-25T10:34:33.322Z,188.00
2018-01-25T10:35:33.358Z,196.00
2018-01-25T10:36:33.300Z,184.00
2018-01-25T10:37:33.261Z,176.00
2018-01-25T10:38:33.410Z,184.00
2018-01-25T10:39:33.236Z,188.00
2018-01-25T10:40:33.268Z,204.00
2018-01-25T10:41:33.245Z,200.00
2018-01-25T10:42:34.175Z,212.00
2018-01-25T10:43:33.215Z,220.00
2018-01-25T10:44:33.165Z,216.00
2018-01-25T10:45:33.233Z,244.00
2018-01-25T10:46:33.203Z,232.00
2018-01-25T10:47:33.206Z,264.00
2018-01-25T10:48:33.165Z,320.00
2018-01-25T10:49:33.264Z,356.00
2018-01-25T10:50:33.140Z,364.00
2018-01-25T10:51:33.072Z,364.00
2018-01-25T10:52:33.108Z,324.00
2018-01-25T10:53:33.181Z,216.00
2018-01-25T10:54:33.171Z,180.00
2018-01-25T10:55:33.677Z,228.00
2018-01-25T10:56:33.031Z,272.00
2018-01-25T10:57:32.956Z,276.00
2018-01-25T10:58:32.941Z,292.00
2018-01-25T10:59:32.931Z,244.00
2018-01-25T11:00:32.918Z,256.00
2018-01-25T11:01:32.913Z,256.00
2018-01-25T11:02:32.902Z,280.00
2018-01-25T11:03:32.906Z,284.00
2018-01-25T11:04:33.687Z,284.00
2018-01-25T11:05:33.712Z,284.00
2018-01-25T11:06:32.876Z,280.00
2018-01-25T11:07:32.810Z,268.00
2018-01-25T11:08:32.879Z,240.00
2018-01-25T11:09:32.844Z,272.00
2018-01-25T11:10:32.752Z,244.00
2018-01-25T11:11:32.833Z,232.00
2018-01-25T11:12:32.746Z,232.00
2018-01-25T11:13:32.805Z,216.00
2018-01-25T11:14:32.866Z,196.00
2018-01-25T11:15:32.669Z,196.00
2018-01-25T11:16:32.766Z,188.00
2018-01-25T11:17:33.308Z,164.00
2018-01-25T11:18:32.656Z,180.00
2018-01-25T11:19:32.693Z,228.00
2018-01-25T11:20:32.686Z,200.00
2018-01-25T11:21:32.616Z,200.00
2018-01-25T11:22:33.206Z,156.00
2018-01-25T11:23:32.941Z,168.00
2018-01-25T11:24:32.545Z,200.00
2018-01-25T11:25:32.522Z,184.00
2018-01-25T11:26:32.503Z,188.00
2018-01-25T11:27:32.529Z,256.00
2018-01-25T11:28:32.481Z,276.00
2018-01-25T11:29:32.468Z,268.00
2018-01-25T11:30:32.451Z,284.00
2018-01-25T11:31:32.431Z,284.00
2018-01-25T11:32:32.436Z,276.00
2018-01-25T11:33:32.461Z,264.00
2018-01-25T11:34:32.370Z,252.00
2018-01-25T11:35:32.400Z,280.00
2018-01-25T11:36:32.349Z,332.00
2018-01-25T11:37:32.326Z,344.00
2018-01-25T11:38:32.374Z,328.00
2018-01-25T11:39:32.294Z,328.00
2018-01-25T11:40:32.277Z,332.00
2018-01-25T11:41:33.220Z,340.00
2018-01-25T11:42:32.250Z,360.00
2018-01-25T11:43:32.266Z,360.00
2018-01-25T11:44:32.232Z,344.00
2018-01-25T11:45:32.203Z,340.00
2018-01-25T11:46:32.184Z,368.00
2018-01-25T11:47:32.173Z,372.00
2018-01-25T11:48:32.187Z,372.00
2018-01-25T11:49:32.164Z,372.00
2018-01-25T11:50:32.131Z,372.00
2018-01-25T11:51:32.110Z,372.00
2018-01-25T11:52:32.106Z,364.00
2018-01-25T11:53:32.075Z,368.00
2018-01-25T11:54:32.084Z,372.00
2018-01-25T11:55:32.043Z,364.00
2018-01-25T11:56:32.040Z,368.00
2018-01-25T11:57:32.022Z,368.00
2018-01-25T11:58:32.002Z,364.00
2018-01-25T11:59:32.015Z,360.00
2018-01-25T12:00:32.095Z,364.00
2018-01-25T12:01:31.952Z,348.00
2018-01-25T12:02:32.712Z,324.00
2018-01-25T12:03:31.926Z,328.00
2018-01-25T12:04:31.942Z,316.00
2018-01-25T12:05:31.907Z,292.00
2018-01-25T12:06:31.902Z,296.00
2018-01-25T12:07:31.874Z,296.00
2018-01-25T12:08:31.851Z,296.00
2018-01-25T12:09:31.834Z,284.00
2018-01-25T12:10:31.839Z,296.00
2018-01-25T12:11:31.807Z,276.00
2018-01-25T12:12:31.792Z,240.00
2018-01-25T12:13:31.764Z,224.00
2018-01-25T12:14:31.757Z,184.00
2018-01-25T12:15:31.761Z,184.00
2018-01-25T12:16:31.742Z,220.00
2018-01-25T12:17:31.703Z,260.00
2018-01-25T12:18:31.688Z,268.00
2018-01-25T12:19:31.721Z,240.00
2018-01-25T12:20:31.654Z,244.00
2018-01-25T12:21:31.676Z,204.00
2018-01-25T12:22:31.726Z,120.00
2018-01-25T12:23:31.667Z,148.00
2018-01-25T12:24:31.597Z,168.00
2018-01-25T12:25:31.582Z,228.00
2018-01-25T12:26:31.588Z,244.00
2018-01-25T12:27:31.551Z,220.00
2018-01-25T12:28:31.554Z,184.00
2018-01-25T12:29:31.545Z,192.00
2018-01-25T12:30:31.509Z,192.00
2018-01-25T12:31:31.490Z,156.00
2018-01-25T12:32:31.482Z,152.00
2018-01-25T12:33:31.479Z,208.00
2018-01-25T12:34:31.438Z,176.00
2018-01-25T12:35:31.435Z,160.00
2018-01-25T12:36:31.409Z,156.00
2018-01-25T12:37:31.400Z,188.00
2018-01-25T12:38:31.438Z,176.00
2018-01-25T12:39:31.373Z,192.00
2018-01-25T12:40:31.389Z,208.00
2018-01-25T12:41:31.334Z,124.00
2018-01-25T12:42:31.326Z,128.00
2018-01-25T12:43:31.333Z,140.00
2018-01-25T12:44:31.380Z,124.00
2018-01-25T12:45:31.274Z,72.00
2018-01-25T12:46:31.262Z,76.00
2018-01-25T12:47:31.241Z,128.00
2018-01-25T12:48:31.227Z,120.00
2018-01-25T12:49:31.230Z,104.00
2018-01-25T12:50:31.283Z,88.00
2018-01-25T12:51:31.221Z,144.00
2018-01-25T12:52:31.160Z,116.00
2018-01-25T12:53:31.414Z,108.00
2018-01-25T12:54:31.178Z,104.00
2018-01-25T12:55:31.171Z,80.00
2018-01-25T12:56:31.735Z,164.00
2018-01-25T12:57:31.087Z,204.00
2018-01-25T12:58:31.066Z,172.00